sensor_id;sensor_type;location;lat;lon;timestamp;P1;durP1;ratioP1;P2;durP2;ratioP2
25153;SDS011;47555;51.038;6.280;2023-06-19T00:00:08;5.65;;;4.85;;
25153;SDS011;47555;51.038;6.280;2023-06-19T00:02:41;7.22;;;5.68;;
25153;SDS011;47555;51.038;6.280;2023-06-19T00:05:08;8.73;;;5.70;;
25153;SDS011;47555;51.038;6.280;2023-06-19T00:07:35;5.60;;;4.97;;
25153;SDS011;47555;51.038;6.280;2023-06-19T00:10:01;5.85;;;5.25;;
25153;SDS011;47555;51.038;6.280;2023-06-19T00:12:27;6.28;;;5.40;;
25153;SDS011;47555;51.038;6.280;2023-06-19T00:14:53;5.55;;;4.93;;
25153;SDS011;47555;51.038;6.280;2023-06-19T00:17:19;6.40;;;5.40;;
25153;SDS011;47555;51.038;6.280;2023-06-19T00:19:45;6.40;;;5.25;;
25153;SDS011;47555;51.038;6.280;2023-06-19T00:22:13;8.50;;;5.90;;
25153;SDS011;47555;51.038;6.280;2023-06-19T00:24:39;7.38;;;5.95;;
25153;SDS011;47555;51.038;6.280;2023-06-19T00:27:05;6.30;;;5.47;;
25153;SDS011;47555;51.038;6.280;2023-06-19T00:29:32;6.18;;;5.57;;
25153;SDS011;47555;51.038;6.280;2023-06-19T00:31:58;6.35;;;5.72;;
25153;SDS011;47555;51.038;6.280;2023-06-19T00:34:24;6.80;;;5.75;;
25153;SDS011;47555;51.038;6.280;2023-06-19T00:36:51;7.80;;;5.78;;
25153;SDS011;47555;51.038;6.280;2023-06-19T00:39:21;7.00;;;5.78;;
25153;SDS011;47555;51.038;6.280;2023-06-19T00:41:47;7.68;;;5.78;;
25153;SDS011;47555;51.038;6.280;2023-06-19T00:44:13;5.45;;;4.95;;
25153;SDS011;47555;51.038;6.280;2023-06-19T00:46:40;7.15;;;6.10;;
25153;SDS011;47555;51.038;6.280;2023-06-19T00:49:07;6.78;;;6.00;;
25153;SDS011;47555;51.038;6.280;2023-06-19T00:51:33;6.85;;;5.95;;
25153;SDS011;47555;51.038;6.280;2023-06-19T00:53:59;6.68;;;5.93;;
25153;SDS011;47555;51.038;6.280;2023-06-19T00:56:27;7.25;;;6.25;;
25153;SDS011;47555;51.038;6.280;2023-06-19T00:58:53;6.68;;;5.60;;
25153;SDS011;47555;51.038;6.280;2023-06-19T01:01:20;7.88;;;6.05;;
25153;SDS011;47555;51.038;6.280;2023-06-19T01:03:48;7.32;;;5.80;;
25153;SDS011;47555;51.038;6.280;2023-06-19T01:06:15;6.68;;;5.95;;
25153;SDS011;47555;51.038;6.280;2023-06-19T01:08:56;7.88;;;5.88;;
25153;SDS011;47555;51.038;6.280;2023-06-19T01:11:25;6.60;;;5.90;;
25153;SDS011;47555;51.038;6.280;2023-06-19T01:13:55;6.80;;;6.10;;
25153;SDS011;47555;51.038;6.280;2023-06-19T01:16:25;6.57;;;5.88;;
25153;SDS011;47555;51.038;6.280;2023-06-19T01:18:52;7.07;;;5.70;;
25153;SDS011;47555;51.038;6.280;2023-06-19T01:21:18;6.47;;;5.78;;
25153;SDS011;47555;51.038;6.280;2023-06-19T01:23:44;7.13;;;6.43;;
25153;SDS011;47555;51.038;6.280;2023-06-19T01:26:11;8.00;;;6.05;;
25153;SDS011;47555;51.038;6.280;2023-06-19T01:28:38;8.93;;;6.22;;
25153;SDS011;47555;51.038;6.280;2023-06-19T01:31:06;8.43;;;6.00;;
25153;SDS011;47555;51.038;6.280;2023-06-19T01:33:35;8.60;;;5.95;;
25153;SDS011;47555;51.038;6.280;2023-06-19T01:36:01;7.18;;;6.35;;
25153;SDS011;47555;51.038;6.280;2023-06-19T01:38:28;7.38;;;6.53;;
25153;SDS011;47555;51.038;6.280;2023-06-19T01:40:54;6.43;;;5.50;;
25153;SDS011;47555;51.038;6.280;2023-06-19T01:43:21;8.23;;;5.70;;
25153;SDS011;47555;51.038;6.280;2023-06-19T01:45:47;6.40;;;5.50;;
25153;SDS011;47555;51.038;6.280;2023-06-19T01:48:13;6.07;;;5.07;;
25153;SDS011;47555;51.038;6.280;2023-06-19T01:50:40;6.32;;;4.88;;
25153;SDS011;47555;51.038;6.280;2023-06-19T01:53:06;6.88;;;5.35;;
25153;SDS011;47555;51.038;6.280;2023-06-19T01:55:31;6.32;;;4.95;;
25153;SDS011;47555;51.038;6.280;2023-06-19T01:57:57;5.93;;;4.53;;
25153;SDS011;47555;51.038;6.280;2023-06-19T02:00:23;5.60;;;4.43;;
25153;SDS011;47555;51.038;6.280;2023-06-19T02:02:49;5.20;;;4.38;;
25153;SDS011;47555;51.038;6.280;2023-06-19T02:05:16;6.97;;;4.57;;
25153;SDS011;47555;51.038;6.280;2023-06-19T02:07:41;5.40;;;4.05;;
25153;SDS011;47555;51.038;6.280;2023-06-19T02:10:08;5.78;;;4.32;;
25153;SDS011;47555;51.038;6.280;2023-06-19T02:12:34;6.15;;;4.22;;
25153;SDS011;47555;51.038;6.280;2023-06-19T02:15:00;5.70;;;4.38;;
25153;SDS011;47555;51.038;6.280;2023-06-19T02:17:25;4.85;;;4.20;;
25153;SDS011;47555;51.038;6.280;2023-06-19T02:19:51;5.75;;;3.83;;
25153;SDS011;47555;51.038;6.280;2023-06-19T02:22:17;4.82;;;4.18;;
25153;SDS011;47555;51.038;6.280;2023-06-19T02:24:44;4.82;;;3.60;;
25153;SDS011;47555;51.038;6.280;2023-06-19T02:27:10;5.35;;;3.75;;
25153;SDS011;47555;51.038;6.280;2023-06-19T02:29:36;4.47;;;3.95;;
25153;SDS011;47555;51.038;6.280;2023-06-19T02:32:02;6.15;;;3.55;;
25153;SDS011;47555;51.038;6.280;2023-06-19T02:34:28;3.80;;;3.38;;
25153;SDS011;47555;51.038;6.280;2023-06-19T02:36:57;4.30;;;3.35;;
25153;SDS011;47555;51.038;6.280;2023-06-19T02:39:23;4.60;;;3.30;;
25153;SDS011;47555;51.038;6.280;2023-06-19T02:41:49;5.35;;;3.90;;
25153;SDS011;47555;51.038;6.280;2023-06-19T02:44:15;6.22;;;4.13;;
25153;SDS011;47555;51.038;6.280;2023-06-19T02:46:41;5.28;;;4.20;;
25153;SDS011;47555;51.038;6.280;2023-06-19T02:49:07;5.00;;;3.60;;
25153;SDS011;47555;51.038;6.280;2023-06-19T02:51:33;4.85;;;3.38;;
25153;SDS011;47555;51.038;6.280;2023-06-19T02:53:59;4.63;;;3.47;;
25153;SDS011;47555;51.038;6.280;2023-06-19T02:56:25;4.82;;;3.72;;
25153;SDS011;47555;51.038;6.280;2023-06-19T02:58:52;5.13;;;3.90;;
25153;SDS011;47555;51.038;6.280;2023-06-19T03:01:18;5.65;;;3.20;;
25153;SDS011;47555;51.038;6.280;2023-06-19T03:03:44;6.80;;;3.55;;
25153;SDS011;47555;51.038;6.280;2023-06-19T03:06:11;4.93;;;3.17;;
25153;SDS011;47555;51.038;6.280;2023-06-19T03:08:38;4.57;;;3.40;;
25153;SDS011;47555;51.038;6.280;2023-06-19T03:11:04;4.13;;;2.95;;
25153;SDS011;47555;51.038;6.280;2023-06-19T03:13:35;4.22;;;2.80;;
25153;SDS011;47555;51.038;6.280;2023-06-19T03:16:01;4.45;;;3.38;;
25153;SDS011;47555;51.038;6.280;2023-06-19T03:18:27;4.72;;;3.55;;
25153;SDS011;47555;51.038;6.280;2023-06-19T03:20:53;3.45;;;2.60;;
25153;SDS011;47555;51.038;6.280;2023-06-19T03:23:19;5.80;;;3.50;;
25153;SDS011;47555;51.038;6.280;2023-06-19T03:25:45;3.65;;;3.25;;
25153;SDS011;47555;51.038;6.280;2023-06-19T03:28:11;4.60;;;3.30;;
25153;SDS011;47555;51.038;6.280;2023-06-19T03:30:37;4.28;;;3.15;;
25153;SDS011;47555;51.038;6.280;2023-06-19T03:33:03;4.68;;;3.05;;
25153;SDS011;47555;51.038;6.280;2023-06-19T03:35:28;3.63;;;2.78;;
25153;SDS011;47555;51.038;6.280;2023-06-19T03:37:54;4.38;;;2.97;;
25153;SDS011;47555;51.038;6.280;2023-06-19T03:40:20;5.20;;;2.88;;
25153;SDS011;47555;51.038;6.280;2023-06-19T03:42:46;3.40;;;2.50;;
25153;SDS011;47555;51.038;6.280;2023-06-19T03:45:12;3.10;;;2.80;;
25153;SDS011;47555;51.038;6.280;2023-06-19T03:47:38;3.58;;;2.63;;
25153;SDS011;47555;51.038;6.280;2023-06-19T03:50:04;2.67;;;2.40;;
25153;SDS011;47555;51.038;6.280;2023-06-19T03:52:34;4.07;;;2.65;;
25153;SDS011;47555;51.038;6.280;2023-06-19T03:55:00;2.83;;;2.40;;
25153;SDS011;47555;51.038;6.280;2023-06-19T03:57:26;3.10;;;2.30;;
25153;SDS011;47555;51.038;6.280;2023-06-19T03:59:52;3.40;;;2.35;;
25153;SDS011;47555;51.038;6.280;2023-06-19T04:02:18;3.97;;;2.28;;
25153;SDS011;47555;51.038;6.280;2023-06-19T04:04:44;4.93;;;2.58;;
25153;SDS011;47555;51.038;6.280;2023-06-19T04:07:10;3.72;;;2.50;;
25153;SDS011;47555;51.038;6.280;2023-06-19T04:09:36;4.30;;;2.53;;
25153;SDS011;47555;51.038;6.280;2023-06-19T04:12:02;4.05;;;2.80;;
25153;SDS011;47555;51.038;6.280;2023-06-19T04:14:28;3.35;;;2.53;;
25153;SDS011;47555;51.038;6.280;2023-06-19T04:16:54;3.42;;;2.38;;
25153;SDS011;47555;51.038;6.280;2023-06-19T04:19:20;3.85;;;2.90;;
25153;SDS011;47555;51.038;6.280;2023-06-19T04:21:46;3.25;;;2.20;;
25153;SDS011;47555;51.038;6.280;2023-06-19T04:24:12;3.58;;;2.70;;
25153;SDS011;47555;51.038;6.280;2023-06-19T04:26:38;3.10;;;2.42;;
25153;SDS011;47555;51.038;6.280;2023-06-19T04:29:04;6.32;;;2.75;;
25153;SDS011;47555;51.038;6.280;2023-06-19T04:31:31;4.68;;;2.80;;
25153;SDS011;47555;51.038;6.280;2023-06-19T04:33:57;3.30;;;2.65;;
25153;SDS011;47555;51.038;6.280;2023-06-19T04:36:23;3.20;;;2.50;;
25153;SDS011;47555;51.038;6.280;2023-06-19T04:38:49;4.70;;;2.30;;
25153;SDS011;47555;51.038;6.280;2023-06-19T04:41:18;3.53;;;2.50;;
25153;SDS011;47555;51.038;6.280;2023-06-19T04:43:44;5.55;;;2.80;;
25153;SDS011;47555;51.038;6.280;2023-06-19T04:46:10;3.25;;;2.30;;
25153;SDS011;47555;51.038;6.280;2023-06-19T04:48:36;4.38;;;2.58;;
25153;SDS011;47555;51.038;6.280;2023-06-19T04:51:02;3.25;;;2.28;;
25153;SDS011;47555;51.038;6.280;2023-06-19T04:53:28;2.58;;;2.28;;
25153;SDS011;47555;51.038;6.280;2023-06-19T04:55:54;3.35;;;2.65;;
25153;SDS011;47555;51.038;6.280;2023-06-19T04:58:21;3.85;;;2.17;;
25153;SDS011;47555;51.038;6.280;2023-06-19T05:00:47;3.58;;;2.50;;
25153;SDS011;47555;51.038;6.280;2023-06-19T05:03:17;3.35;;;2.53;;
25153;SDS011;47555;51.038;6.280;2023-06-19T05:05:43;2.92;;;2.30;;
25153;SDS011;47555;51.038;6.280;2023-06-19T05:08:09;2.97;;;2.47;;
25153;SDS011;47555;51.038;6.280;2023-06-19T05:10:35;3.83;;;2.70;;
25153;SDS011;47555;51.038;6.280;2023-06-19T05:13:01;2.78;;;2.50;;
25153;SDS011;47555;51.038;6.280;2023-06-19T05:15:28;4.32;;;2.83;;
25153;SDS011;47555;51.038;6.280;2023-06-19T05:17:54;2.78;;;2.13;;
25153;SDS011;47555;51.038;6.280;2023-06-19T05:20:20;5.25;;;2.55;;
25153;SDS011;47555;51.038;6.280;2023-06-19T05:22:45;4.68;;;2.42;;
25153;SDS011;47555;51.038;6.280;2023-06-19T05:25:11;3.22;;;2.58;;
25153;SDS011;47555;51.038;6.280;2023-06-19T05:27:37;3.30;;;2.78;;
25153;SDS011;47555;51.038;6.280;2023-06-19T05:30:04;4.50;;;2.40;;
25153;SDS011;47555;51.038;6.280;2023-06-19T05:32:30;2.90;;;2.33;;
25153;SDS011;47555;51.038;6.280;2023-06-19T05:34:56;4.50;;;2.40;;
25153;SDS011;47555;51.038;6.280;2023-06-19T05:37:22;3.78;;;2.50;;
25153;SDS011;47555;51.038;6.280;2023-06-19T05:39:48;3.55;;;2.40;;
25153;SDS011;47555;51.038;6.280;2023-06-19T05:42:14;3.00;;;2.65;;
25153;SDS011;47555;51.038;6.280;2023-06-19T05:44:40;3.78;;;2.83;;
25153;SDS011;47555;51.038;6.280;2023-06-19T05:47:06;4.10;;;2.55;;
25153;SDS011;47555;51.038;6.280;2023-06-19T05:49:32;2.92;;;2.58;;
25153;SDS011;47555;51.038;6.280;2023-06-19T05:51:58;2.88;;;2.42;;
25153;SDS011;47555;51.038;6.280;2023-06-19T05:54:25;4.60;;;2.50;;
25153;SDS011;47555;51.038;6.280;2023-06-19T05:56:51;3.92;;;2.58;;
25153;SDS011;47555;51.038;6.280;2023-06-19T05:59:17;4.10;;;2.15;;
25153;SDS011;47555;51.038;6.280;2023-06-19T06:04:49;2.60;;;2.17;;
25153;SDS011;47555;51.038;6.280;2023-06-19T06:07:14;2.83;;;2.42;;
25153;SDS011;47555;51.038;6.280;2023-06-19T06:09:40;3.60;;;2.60;;
25153;SDS011;47555;51.038;6.280;2023-06-19T06:12:06;4.20;;;2.67;;
25153;SDS011;47555;51.038;6.280;2023-06-19T06:14:32;3.75;;;2.40;;
25153;SDS011;47555;51.038;6.280;2023-06-19T06:16:58;4.68;;;2.50;;
25153;SDS011;47555;51.038;6.280;2023-06-19T06:19:24;3.28;;;2.70;;
25153;SDS011;47555;51.038;6.280;2023-06-19T06:21:51;3.10;;;2.40;;
25153;SDS011;47555;51.038;6.280;2023-06-19T06:24:17;3.60;;;2.63;;
25153;SDS011;47555;51.038;6.280;2023-06-19T06:26:43;2.90;;;2.45;;
25153;SDS011;47555;51.038;6.280;2023-06-19T06:29:09;5.22;;;2.90;;
25153;SDS011;47555;51.038;6.280;2023-06-19T06:31:37;4.80;;;3.30;;
25153;SDS011;47555;51.038;6.280;2023-06-19T06:34:04;4.82;;;3.08;;
25153;SDS011;47555;51.038;6.280;2023-06-19T06:36:30;5.32;;;2.78;;
25153;SDS011;47555;51.038;6.280;2023-06-19T06:38:56;4.50;;;2.63;;
25153;SDS011;47555;51.038;6.280;2023-06-19T06:41:22;7.55;;;3.33;;
25153;SDS011;47555;51.038;6.280;2023-06-19T06:43:48;4.18;;;3.30;;
25153;SDS011;47555;51.038;6.280;2023-06-19T06:46:14;3.75;;;3.17;;
25153;SDS011;47555;51.038;6.280;2023-06-19T06:48:40;3.55;;;3.08;;
25153;SDS011;47555;51.038;6.280;2023-06-19T06:51:06;5.45;;;3.40;;
25153;SDS011;47555;51.038;6.280;2023-06-19T06:53:34;3.85;;;3.15;;
25153;SDS011;47555;51.038;6.280;2023-06-19T06:56:00;5.82;;;3.10;;
25153;SDS011;47555;51.038;6.280;2023-06-19T06:58:26;4.53;;;3.17;;
25153;SDS011;47555;51.038;6.280;2023-06-19T07:00:52;4.05;;;3.00;;
25153;SDS011;47555;51.038;6.280;2023-06-19T07:03:18;4.72;;;2.67;;
25153;SDS011;47555;51.038;6.280;2023-06-19T07:05:44;4.40;;;2.90;;
25153;SDS011;47555;51.038;6.280;2023-06-19T07:08:10;4.32;;;2.97;;
25153;SDS011;47555;51.038;6.280;2023-06-19T07:10:37;3.25;;;2.88;;
25153;SDS011;47555;51.038;6.280;2023-06-19T07:13:03;4.72;;;3.25;;
25153;SDS011;47555;51.038;6.280;2023-06-19T07:15:28;3.40;;;2.92;;
25153;SDS011;47555;51.038;6.280;2023-06-19T07:17:55;2.95;;;2.65;;
25153;SDS011;47555;51.038;6.280;2023-06-19T07:20:21;3.13;;;2.83;;
25153;SDS011;47555;51.038;6.280;2023-06-19T07:22:47;3.58;;;3.08;;
25153;SDS011;47555;51.038;6.280;2023-06-19T07:25:15;4.47;;;3.08;;
25153;SDS011;47555;51.038;6.280;2023-06-19T07:27:41;6.28;;;3.50;;
25153;SDS011;47555;51.038;6.280;2023-06-19T07:30:07;6.35;;;3.45;;
25153;SDS011;47555;51.038;6.280;2023-06-19T07:32:33;3.70;;;3.22;;
25153;SDS011;47555;51.038;6.280;2023-06-19T07:34:59;4.43;;;3.33;;
25153;SDS011;47555;51.038;6.280;2023-06-19T07:37:25;6.78;;;4.75;;
25153;SDS011;47555;51.038;6.280;2023-06-19T07:39:51;5.57;;;3.45;;
25153;SDS011;47555;51.038;6.280;2023-06-19T07:42:18;6.00;;;3.55;;
25153;SDS011;47555;51.038;6.280;2023-06-19T07:44:47;5.43;;;3.50;;
25153;SDS011;47555;51.038;6.280;2023-06-19T07:47:13;5.18;;;3.10;;
25153;SDS011;47555;51.038;6.280;2023-06-19T07:49:39;6.25;;;3.45;;
25153;SDS011;47555;51.038;6.280;2023-06-19T07:52:05;3.75;;;3.35;;
25153;SDS011;47555;51.038;6.280;2023-06-19T07:54:34;4.35;;;3.28;;
25153;SDS011;47555;51.038;6.280;2023-06-19T07:57:00;5.05;;;3.63;;
25153;SDS011;47555;51.038;6.280;2023-06-19T07:59:26;4.50;;;3.35;;
25153;SDS011;47555;51.038;6.280;2023-06-19T08:01:52;3.63;;;3.28;;
25153;SDS011;47555;51.038;6.280;2023-06-19T08:04:18;5.15;;;3.92;;
25153;SDS011;47555;51.038;6.280;2023-06-19T08:06:44;5.22;;;3.80;;
25153;SDS011;47555;51.038;6.280;2023-06-19T08:09:10;4.20;;;3.50;;
25153;SDS011;47555;51.038;6.280;2023-06-19T08:11:36;6.03;;;3.97;;
25153;SDS011;47555;51.038;6.280;2023-06-19T08:14:02;4.90;;;3.95;;
25153;SDS011;47555;51.038;6.280;2023-06-19T08:16:28;8.93;;;4.18;;
25153;SDS011;47555;51.038;6.280;2023-06-19T08:18:54;5.35;;;4.22;;
25153;SDS011;47555;51.038;6.280;2023-06-19T08:21:20;5.38;;;3.78;;
25153;SDS011;47555;51.038;6.280;2023-06-19T08:23:46;8.02;;;3.53;;
25153;SDS011;47555;51.038;6.280;2023-06-19T08:26:12;5.80;;;3.58;;
25153;SDS011;47555;51.038;6.280;2023-06-19T08:28:38;7.32;;;3.88;;
25153;SDS011;47555;51.038;6.280;2023-06-19T08:31:06;6.10;;;3.85;;
25153;SDS011;47555;51.038;6.280;2023-06-19T08:33:33;6.15;;;4.10;;
25153;SDS011;47555;51.038;6.280;2023-06-19T08:36:03;6.50;;;4.30;;
25153;SDS011;47555;51.038;6.280;2023-06-19T08:38:29;4.43;;;3.22;;
25153;SDS011;47555;51.038;6.280;2023-06-19T08:40:55;6.63;;;3.95;;
25153;SDS011;47555;51.038;6.280;2023-06-19T08:43:21;6.60;;;3.80;;
25153;SDS011;47555;51.038;6.280;2023-06-19T08:46:20;6.15;;;3.90;;
25153;SDS011;47555;51.038;6.280;2023-06-19T08:48:39;5.18;;;3.83;;
25153;SDS011;47555;51.038;6.280;2023-06-19T08:51:06;5.43;;;3.50;;
25153;SDS011;47555;51.038;6.280;2023-06-19T08:53:35;5.05;;;3.58;;
25153;SDS011;47555;51.038;6.280;2023-06-19T08:56:02;4.70;;;3.78;;
25153;SDS011;47555;51.038;6.280;2023-06-19T08:58:28;4.38;;;2.97;;
25153;SDS011;47555;51.038;6.280;2023-06-19T09:00:54;7.03;;;3.33;;
25153;SDS011;47555;51.038;6.280;2023-06-19T09:03:20;4.93;;;3.65;;
25153;SDS011;47555;51.038;6.280;2023-06-19T09:05:47;6.82;;;3.67;;
25153;SDS011;47555;51.038;6.280;2023-06-19T09:08:16;6.78;;;3.58;;
25153;SDS011;47555;51.038;6.280;2023-06-19T09:10:43;5.60;;;3.50;;
25153;SDS011;47555;51.038;6.280;2023-06-19T09:13:09;4.45;;;3.78;;
25153;SDS011;47555;51.038;6.280;2023-06-19T09:15:35;4.80;;;3.75;;
25153;SDS011;47555;51.038;6.280;2023-06-19T09:18:08;6.13;;;3.78;;
25153;SDS011;47555;51.038;6.280;2023-06-19T09:20:34;5.80;;;3.55;;
25153;SDS011;47555;51.038;6.280;2023-06-19T09:23:03;7.20;;;4.00;;
25153;SDS011;47555;51.038;6.280;2023-06-19T09:25:29;5.80;;;3.65;;
25153;SDS011;47555;51.038;6.280;2023-06-19T09:27:55;6.13;;;3.63;;
25153;SDS011;47555;51.038;6.280;2023-06-19T09:30:22;5.63;;;3.58;;
25153;SDS011;47555;51.038;6.280;2023-06-19T09:32:48;5.30;;;3.58;;
25153;SDS011;47555;51.038;6.280;2023-06-19T09:35:14;5.32;;;3.83;;
25153;SDS011;47555;51.038;6.280;2023-06-19T09:37:42;6.75;;;3.85;;
25153;SDS011;47555;51.038;6.280;2023-06-19T09:40:10;4.90;;;3.45;;
25153;SDS011;47555;51.038;6.280;2023-06-19T09:42:37;7.18;;;3.75;;
25153;SDS011;47555;51.038;6.280;2023-06-19T09:45:04;4.93;;;3.60;;
25153;SDS011;47555;51.038;6.280;2023-06-19T09:47:52;5.53;;;4.00;;
25153;SDS011;47555;51.038;6.280;2023-06-19T09:50:16;4.85;;;3.33;;
25153;SDS011;47555;51.038;6.280;2023-06-19T09:52:45;5.72;;;3.65;;
25153;SDS011;47555;51.038;6.280;2023-06-19T09:55:12;6.40;;;3.55;;
25153;SDS011;47555;51.038;6.280;2023-06-19T09:57:38;4.78;;;3.40;;
25153;SDS011;47555;51.038;6.280;2023-06-19T10:00:05;5.70;;;3.63;;
25153;SDS011;47555;51.038;6.280;2023-06-19T10:02:42;4.65;;;3.28;;
25153;SDS011;47555;51.038;6.280;2023-06-19T10:05:09;4.60;;;3.47;;
25153;SDS011;47555;51.038;6.280;2023-06-19T10:07:38;4.63;;;3.70;;
25153;SDS011;47555;51.038;6.280;2023-06-19T10:10:07;5.18;;;3.35;;
25153;SDS011;47555;51.038;6.280;2023-06-19T10:12:55;5.90;;;3.70;;
25153;SDS011;47555;51.038;6.280;2023-06-19T10:15:29;7.80;;;3.45;;
25153;SDS011;47555;51.038;6.280;2023-06-19T10:18:02;5.18;;;3.72;;
25153;SDS011;47555;51.038;6.280;2023-06-19T10:20:32;6.55;;;4.82;;
25153;SDS011;47555;51.038;6.280;2023-06-19T10:23:20;6.40;;;3.80;;
25153;SDS011;47555;51.038;6.280;2023-06-19T10:25:46;6.38;;;3.90;;
25153;SDS011;47555;51.038;6.280;2023-06-19T10:28:19;6.63;;;4.15;;
25153;SDS011;47555;51.038;6.280;2023-06-19T10:30:51;5.45;;;3.65;;
25153;SDS011;47555;51.038;6.280;2023-06-19T10:33:18;4.13;;;3.60;;
25153;SDS011;47555;51.038;6.280;2023-06-19T10:35:44;6.50;;;3.80;;
25153;SDS011;47555;51.038;6.280;2023-06-19T10:38:10;7.03;;;3.78;;
25153;SDS011;47555;51.038;6.280;2023-06-19T10:40:36;6.40;;;3.60;;
25153;SDS011;47555;51.038;6.280;2023-06-19T10:43:02;6.70;;;4.00;;
25153;SDS011;47555;51.038;6.280;2023-06-19T10:45:29;5.22;;;3.63;;
25153;SDS011;47555;51.038;6.280;2023-06-19T10:47:55;5.95;;;3.53;;
25153;SDS011;47555;51.038;6.280;2023-06-19T10:50:21;5.32;;;3.67;;
25153;SDS011;47555;51.038;6.280;2023-06-19T10:52:48;5.75;;;3.88;;
25153;SDS011;47555;51.038;6.280;2023-06-19T10:55:14;7.07;;;3.78;;
25153;SDS011;47555;51.038;6.280;2023-06-19T10:57:41;6.05;;;3.67;;
25153;SDS011;47555;51.038;6.280;2023-06-19T11:00:09;4.60;;;3.80;;
25153;SDS011;47555;51.038;6.280;2023-06-19T11:02:40;6.43;;;3.85;;
25153;SDS011;47555;51.038;6.280;2023-06-19T11:05:08;4.70;;;3.63;;
25153;SDS011;47555;51.038;6.280;2023-06-19T11:07:34;7.28;;;4.20;;
25153;SDS011;47555;51.038;6.280;2023-06-19T11:10:00;4.57;;;3.85;;
25153;SDS011;47555;51.038;6.280;2023-06-19T11:12:26;5.60;;;3.88;;
25153;SDS011;47555;51.038;6.280;2023-06-19T11:14:52;4.97;;;3.50;;
25153;SDS011;47555;51.038;6.280;2023-06-19T11:17:22;7.78;;;4.18;;
25153;SDS011;47555;51.038;6.280;2023-06-19T11:19:49;4.88;;;4.00;;
25153;SDS011;47555;51.038;6.280;2023-06-19T11:22:15;4.28;;;3.63;;
25153;SDS011;47555;51.038;6.280;2023-06-19T11:24:44;5.28;;;4.15;;
25153;SDS011;47555;51.038;6.280;2023-06-19T11:27:17;5.85;;;4.10;;
25153;SDS011;47555;51.038;6.280;2023-06-19T11:29:43;6.43;;;4.00;;
25153;SDS011;47555;51.038;6.280;2023-06-19T11:32:13;5.05;;;3.75;;
25153;SDS011;47555;51.038;6.280;2023-06-19T11:37:11;6.68;;;4.35;;
25153;SDS011;47555;51.038;6.280;2023-06-19T11:39:38;5.22;;;4.15;;
25153;SDS011;47555;51.038;6.280;2023-06-19T11:42:04;7.35;;;4.65;;
25153;SDS011;47555;51.038;6.280;2023-06-19T11:44:30;5.75;;;4.13;;
25153;SDS011;47555;51.038;6.280;2023-06-19T11:46:56;6.63;;;4.20;;
25153;SDS011;47555;51.038;6.280;2023-06-19T11:49:26;7.05;;;3.80;;
25153;SDS011;47555;51.038;6.280;2023-06-19T11:51:53;7.78;;;4.65;;
25153;SDS011;47555;51.038;6.280;2023-06-19T11:54:19;5.90;;;4.18;;
25153;SDS011;47555;51.038;6.280;2023-06-19T11:56:45;5.13;;;4.32;;
25153;SDS011;47555;51.038;6.280;2023-06-19T11:59:12;8.15;;;4.30;;
25153;SDS011;47555;51.038;6.280;2023-06-19T12:01:39;5.97;;;4.20;;
25153;SDS011;47555;51.038;6.280;2023-06-19T12:04:05;7.05;;;4.20;;
25153;SDS011;47555;51.038;6.280;2023-06-19T12:06:31;6.07;;;4.50;;
25153;SDS011;47555;51.038;6.280;2023-06-19T12:08:57;5.18;;;4.28;;
25153;SDS011;47555;51.038;6.280;2023-06-19T12:11:24;6.47;;;4.38;;
25153;SDS011;47555;51.038;6.280;2023-06-19T12:13:50;8.38;;;4.60;;
25153;SDS011;47555;51.038;6.280;2023-06-19T12:16:18;4.60;;;4.03;;
25153;SDS011;47555;51.038;6.280;2023-06-19T12:18:44;4.88;;;4.18;;
25153;SDS011;47555;51.038;6.280;2023-06-19T12:21:10;6.88;;;4.43;;
25153;SDS011;47555;51.038;6.280;2023-06-19T12:23:36;6.45;;;4.57;;
25153;SDS011;47555;51.038;6.280;2023-06-19T12:26:02;8.82;;;4.25;;
25153;SDS011;47555;51.038;6.280;2023-06-19T12:28:28;5.80;;;4.50;;
25153;SDS011;47555;51.038;6.280;2023-06-19T12:30:54;6.55;;;4.45;;
25153;SDS011;47555;51.038;6.280;2023-06-19T12:33:21;7.20;;;4.35;;
25153;SDS011;47555;51.038;6.280;2023-06-19T12:35:47;7.18;;;4.43;;
25153;SDS011;47555;51.038;6.280;2023-06-19T12:38:13;6.57;;;4.13;;
25153;SDS011;47555;51.038;6.280;2023-06-19T12:40:39;6.85;;;4.40;;
25153;SDS011;47555;51.038;6.280;2023-06-19T12:43:05;6.22;;;4.32;;
25153;SDS011;47555;51.038;6.280;2023-06-19T12:45:31;6.80;;;4.55;;
25153;SDS011;47555;51.038;6.280;2023-06-19T12:47:57;5.90;;;4.18;;
25153;SDS011;47555;51.038;6.280;2023-06-19T12:50:23;6.00;;;4.32;;
25153;SDS011;47555;51.038;6.280;2023-06-19T12:52:50;6.13;;;4.68;;
25153;SDS011;47555;51.038;6.280;2023-06-19T12:55:16;5.43;;;3.88;;
25153;SDS011;47555;51.038;6.280;2023-06-19T12:57:42;5.00;;;4.20;;
25153;SDS011;47555;51.038;6.280;2023-06-19T13:00:10;12.52;;;5.20;;
25153;SDS011;47555;51.038;6.280;2023-06-19T13:02:37;10.18;;;4.75;;
25153;SDS011;47555;51.038;6.280;2023-06-19T13:05:03;6.57;;;4.45;;
25153;SDS011;47555;51.038;6.280;2023-06-19T13:07:28;6.60;;;4.10;;
25153;SDS011;47555;51.038;6.280;2023-06-19T13:09:54;6.22;;;4.22;;
25153;SDS011;47555;51.038;6.280;2023-06-19T13:12:22;7.28;;;4.32;;
25153;SDS011;47555;51.038;6.280;2023-06-19T13:14:48;6.63;;;4.05;;
25153;SDS011;47555;51.038;6.280;2023-06-19T13:17:13;7.13;;;4.22;;
25153;SDS011;47555;51.038;6.280;2023-06-19T13:19:40;6.70;;;3.92;;
25153;SDS011;47555;51.038;6.280;2023-06-19T13:22:06;5.85;;;3.95;;
25153;SDS011;47555;51.038;6.280;2023-06-19T13:24:31;5.93;;;3.50;;
25153;SDS011;47555;51.038;6.280;2023-06-19T13:26:57;4.28;;;3.88;;
25153;SDS011;47555;51.038;6.280;2023-06-19T13:29:23;7.63;;;4.28;;
25153;SDS011;47555;51.038;6.280;2023-06-19T13:31:49;8.52;;;3.83;;
25153;SDS011;47555;51.038;6.280;2023-06-19T13:34:15;4.95;;;4.00;;
25153;SDS011;47555;51.038;6.280;2023-06-19T13:36:43;4.93;;;3.50;;
25153;SDS011;47555;51.038;6.280;2023-06-19T13:39:09;6.50;;;3.45;;
25153;SDS011;47555;51.038;6.280;2023-06-19T13:41:35;4.60;;;3.30;;
25153;SDS011;47555;51.038;6.280;2023-06-19T13:44:01;5.55;;;3.72;;
25153;SDS011;47555;51.038;6.280;2023-06-19T13:46:28;5.45;;;3.88;;
25153;SDS011;47555;51.038;6.280;2023-06-19T13:48:56;5.95;;;3.50;;
25153;SDS011;47555;51.038;6.280;2023-06-19T13:51:22;4.88;;;3.55;;
25153;SDS011;47555;51.038;6.280;2023-06-19T13:53:49;4.15;;;3.30;;
25153;SDS011;47555;51.038;6.280;2023-06-19T13:56:15;6.13;;;3.53;;
25153;SDS011;47555;51.038;6.280;2023-06-19T13:58:41;4.47;;;3.10;;
25153;SDS011;47555;51.038;6.280;2023-06-19T14:01:07;6.03;;;3.50;;
25153;SDS011;47555;51.038;6.280;2023-06-19T14:03:33;4.30;;;3.33;;
25153;SDS011;47555;51.038;6.280;2023-06-19T14:05:59;5.22;;;3.80;;
25153;SDS011;47555;51.038;6.280;2023-06-19T14:08:25;7.82;;;3.67;;
25153;SDS011;47555;51.038;6.280;2023-06-19T14:10:51;4.97;;;3.92;;
25153;SDS011;47555;51.038;6.280;2023-06-19T14:13:17;5.45;;;3.38;;
25153;SDS011;47555;51.038;6.280;2023-06-19T14:15:43;4.40;;;3.60;;
25153;SDS011;47555;51.038;6.280;2023-06-19T14:18:09;6.22;;;3.60;;
25153;SDS011;47555;51.038;6.280;2023-06-19T14:20:35;4.30;;;3.58;;
25153;SDS011;47555;51.038;6.280;2023-06-19T14:23:01;5.53;;;4.00;;
25153;SDS011;47555;51.038;6.280;2023-06-19T14:25:27;7.10;;;4.25;;
25153;SDS011;47555;51.038;6.280;2023-06-19T14:27:53;7.70;;;4.32;;
25153;SDS011;47555;51.038;6.280;2023-06-19T14:30:19;4.90;;;3.67;;
25153;SDS011;47555;51.038;6.280;2023-06-19T14:32:45;5.18;;;3.10;;
25153;SDS011;47555;51.038;6.280;2023-06-19T14:35:11;3.42;;;3.13;;
25153;SDS011;47555;51.038;6.280;2023-06-19T14:37:37;3.85;;;3.20;;
25153;SDS011;47555;51.038;6.280;2023-06-19T14:40:03;7.47;;;3.20;;
25153;SDS011;47555;51.038;6.280;2023-06-19T14:42:29;4.40;;;3.22;;
25153;SDS011;47555;51.038;6.280;2023-06-19T14:44:55;5.28;;;3.40;;
25153;SDS011;47555;51.038;6.280;2023-06-19T14:47:21;4.47;;;3.70;;
25153;SDS011;47555;51.038;6.280;2023-06-19T14:49:47;5.63;;;3.60;;